Historyczne dane pomiarowe

Dodano dane terminowe – wersja testowa.

Dane z okresu 1951-2019

Wersja bazy: 1.34 [2019-03-16, lista zmian], aktualizacja planowana na 2019-04-15

Dane meteo z obszaru Polski uzyskane na podstawie danych udostępnionych przez Instytut Meteorologii i Gospodarki Wodnej – Państwowy Instytut Badawczy.

 

Wybierz Datę:    

       

TemperaturaWilgotnośćWiatrCiśnienieOpadyŚniegCzas trwania zjawisk
 Stacja t tx tn tng RH VA  wxwx mslp ppp RRR   cm mm wxwxwxwxwxwxwx
1930-06-13 26.6 32.0 18.6- 48.0-----1005.3- 0.0--x- 13.4-------
1930-06-14 24.6 32.7 18.1- 56.0-----1004.9- 0.0--x- 11.2-------
1930-06-15 19.3 25.0 13.2- 74.0-----1008.2- 0.0--x- 6.2-------
1930-06-16 19.1 24.3 13.0- 48.0-----1011.5- 0.0--x- 13.9-------
1930-06-17 20.0 25.8 11.8- 47.0-----1010.1- 0.0--x- 14.3-------
1930-06-18 21.6 26.8 13.4- 46.0-----1007.0- 0.0--x- 13.5-------
1930-06-19 22.0 27.4 15.2- 45.0-----1005.7- 0.0--x- 13.7-------
1930-06-20 24.2 30.3 15.9- 40.0-----1004.8- 1.6--x- 12.9-------
1930-06-21 17.1 20.3 15.9- 84.0-----1007.2- 0.0--x- 1.2-------
1930-06-22 21.2 27.3 15.1- 64.0-----1003.9- 0.0--x- 9.4-------
1930-06-23 25.5 32.0 15.2- 55.0-----1000.2- 0.7--x- 11.6-------
1930-06-24 23.5 29.3 18.1- 65.0----- 997.5- 2.1--x- 6.7-------
1930-06-25 19.4 24.8 16.0- 50.0-----1000.5- 3.3--x- 10.5-------
1930-06-26 16.4 19.3 15.3- 76.0----- 998.9- 14.1--x- 0.1-------
1930-06-27 19.2 24.0 14.0- 82.0----- 995.9- 0.0--x- 4.9-------
1930-06-28 20.1 24.0 16.1- 60.0-----1000.5- 0.3--x- 10.3-------
1930-06-29 19.2 24.7 15.0- 64.0-----1005.2- 0.0--x- 9.1-------
1930-06-30 19.8 24.8 15.1- 54.0-----1004.0- 0.0--x- 13.6-------
1930-07-01 19.2 24.5 11.7- 53.0-----1003.1- 0.0--x- 14.1-------
1930-07-02 22.0 28.5 14.1- 40.0-----1003.3- 0.0--x- 14.5-------
1930-07-03 25.0 31.5 16.2- 36.0-----1003.5- 0.0--x- 14.3-------
1930-07-04 24.1 30.8 17.0- 42.0-----1004.1- 11.1--x- 13.6-------
1930-07-05 21.9 33.3 16.0- 61.0-----1000.8- 0.0--x- 7.3-------
1930-07-06 19.3 23.3 14.0- 60.0-----1001.3- 0.0--x- 13.2-------
1930-07-07 18.5 24.1 15.0- 64.0-----1001.4- 0.0--x- 9.4-------
1930-07-08 16.0 18.6 13.3- 59.0-----1003.8- 0.0--x- 0.0-------
1930-07-09 17.0 20.3 11.9- 66.0-----1002.7- 0.0--x- 9.6-------
1930-07-10 15.1 18.3 10.9- 57.0-----1001.2- 6.1--x- 11.6-------
1930-07-11 12.7 18.0 8.5- 74.0----- 996.3- 4.4--x- 5.3-------
1930-07-12 11.3 13.0 10.0- 93.0----- 994.5- 6.3--x- 0.0-------
2.8 ms

 

Źródłem pochodzenia danych jest Instytut Meteorologii i Gospodarki Wodnej – Państwowy Instytut Badawczy. Dane Instytutu Meteorologii i Gospodarki Wodnej – Państwowego Instytutu Badawczego zostały przetworzone.

Dane źródłowe można odnaleźć na stronie https://dane.imgw.pl